Iberville, Louisiana
Current Conditions -  °F | °C
As of 12:35 AM on Thursday 27 Nov 2014 (Local Time) from KL38 Reporting Station
Clear Clear  
Wind Chill: 53°   Ceiling: Unl
Heat Index: 53°   Visibility: 10mi
Dew Point: 51°   Wind: 5mph
Humidity: 92%   Direction: 280°W
Pressure: 30.29"   Gusts: NA
Location:  30.2802°N, 91.0796°W
Report Text: KL38 270635Z AUTO 28004KT 10SM CLR 12/11 A3029 RMK AO2 T01170105
Loading
Personal Weather Stations






























Interactive Weather Map New forecast layout! Learn more

10-Day Weather Forecast

Advertisements
Track Severe Weather on mobile